sensor_id;sensor_type;location;lat;lon;timestamp;pressure;altitude;pressure_sealevel;temperature;humidity
3082;BME280;1551;51.046;7.010;2023-12-20T00:02:18;100803.59;;;9.32;100.00
3082;BME280;1551;51.046;7.010;2023-12-20T00:05:07;100807.88;;;9.34;100.00
3082;BME280;1551;51.046;7.010;2023-12-20T00:07:56;100805.28;;;9.36;100.00
3082;BME280;1551;51.046;7.010;2023-12-20T00:10:45;100795.91;;;9.38;100.00
3082;BME280;1551;51.046;7.010;2023-12-20T00:13:34;100800.22;;;9.28;100.00
3082;BME280;1551;51.046;7.010;2023-12-20T00:16:23;100800.22;;;9.30;100.00
3082;BME280;1551;51.046;7.010;2023-12-20T00:19:12;100800.19;;;9.31;100.00
3082;BME280;1551;51.046;7.010;2023-12-20T00:22:01;100801.03;;;9.38;100.00
3082;BME280;1551;51.046;7.010;2023-12-20T00:24:50;100819.78;;;9.35;100.00
3082;BME280;1551;51.046;7.010;2023-12-20T00:27:39;100831.66;;;9.41;100.00
3082;BME280;1551;51.046;7.010;2023-12-20T00:30:28;100836.78;;;9.39;100.00
3082;BME280;1551;51.046;7.010;2023-12-20T00:33:17;100823.22;;;9.28;100.00
3082;BME280;1551;51.046;7.010;2023-12-20T00:36:06;100825.78;;;9.28;100.00
3082;BME280;1551;51.046;7.010;2023-12-20T00:38:55;100822.34;;;9.26;100.00
3082;BME280;1551;51.046;7.010;2023-12-20T00:41:44;100827.44;;;9.26;100.00
3082;BME280;1551;51.046;7.010;2023-12-20T00:44:33;100837.69;;;9.28;100.00
3082;BME280;1551;51.046;7.010;2023-12-20T00:47:22;100832.53;;;9.34;100.00
3082;BME280;1551;51.046;7.010;2023-12-20T00:50:11;100841.09;;;9.33;100.00
3082;BME280;1551;51.046;7.010;2023-12-20T00:53:00;100849.59;;;9.26;100.00
3082;BME280;1551;51.046;7.010;2023-12-20T00:55:49;100852.16;;;9.23;100.00
3082;BME280;1551;51.046;7.010;2023-12-20T00:58:38;100846.22;;;9.16;100.00
3082;BME280;1551;51.046;7.010;2023-12-20T01:01:27;100843.66;;;9.15;100.00
3082;BME280;1551;51.046;7.010;2023-12-20T01:04:16;100846.22;;;9.13;100.00
3082;BME280;1551;51.046;7.010;2023-12-20T01:07:05;100847.94;;;9.07;100.00
3082;BME280;1551;51.046;7.010;2023-12-20T01:09:54;100849.63;;;9.03;100.00
3082;BME280;1551;51.046;7.010;2023-12-20T01:12:43;100844.53;;;8.98;100.00
3082;BME280;1551;51.046;7.010;2023-12-20T01:15:32;100844.53;;;8.91;100.00
3082;BME280;1551;51.046;7.010;2023-12-20T01:18:21;100852.22;;;8.83;100.00
3082;BME280;1551;51.046;7.010;2023-12-20T01:21:10;100850.50;;;8.87;100.00
3082;BME280;1551;51.046;7.010;2023-12-20T01:23:59;100858.16;;;8.97;100.00
3082;BME280;1551;51.046;7.010;2023-12-20T01:26:48;100847.94;;;8.97;100.00
3082;BME280;1551;51.046;7.010;2023-12-20T01:29:37;100848.78;;;9.01;100.00
3082;BME280;1551;51.046;7.010;2023-12-20T01:32:25;100857.28;;;8.98;100.00
3082;BME280;1551;51.046;7.010;2023-12-20T01:35:14;100864.97;;;8.95;100.00
3082;BME280;1551;51.046;7.010;2023-12-20T01:38:03;100855.59;;;8.91;100.00
3082;BME280;1551;51.046;7.010;2023-12-20T01:40:52;100856.47;;;8.78;100.00
3082;BME280;1551;51.046;7.010;2023-12-20T01:43:41;100859.00;;;8.68;100.00
3082;BME280;1551;51.046;7.010;2023-12-20T01:46:30;100865.78;;;8.63;100.00
3082;BME280;1551;51.046;7.010;2023-12-20T01:49:19;100870.06;;;8.62;100.00
3082;BME280;1551;51.046;7.010;2023-12-20T01:52:09;100876.03;;;8.64;100.00
3082;BME280;1551;51.046;7.010;2023-12-20T01:54:58;100882.81;;;8.65;100.00
3082;BME280;1551;51.046;7.010;2023-12-20T01:57:52;100878.56;;;8.55;100.00
3082;BME280;1551;51.046;7.010;2023-12-20T02:00:41;100875.16;;;8.50;100.00
3082;BME280;1551;51.046;7.010;2023-12-20T02:03:30;100892.13;;;8.42;100.00
3082;BME280;1551;51.046;7.010;2023-12-20T02:06:21;100883.63;;;8.40;100.00
3082;BME280;1551;51.046;7.010;2023-12-20T02:09:11;100889.59;;;8.36;100.00
3082;BME280;1551;51.046;7.010;2023-12-20T02:12:00;100879.38;;;8.27;100.00
3082;BME280;1551;51.046;7.010;2023-12-20T02:14:49;100881.84;;;8.21;100.00
3082;BME280;1551;51.046;7.010;2023-12-20T02:17:38;100892.03;;;8.10;100.00
3082;BME280;1551;51.046;7.010;2023-12-20T02:20:28;100889.44;;;7.98;100.00
3082;BME280;1551;51.046;7.010;2023-12-20T02:23:17;100903.00;;;7.93;100.00
3082;BME280;1551;51.046;7.010;2023-12-20T02:26:06;100901.28;;;7.83;100.00
3082;BME280;1551;51.046;7.010;2023-12-20T02:28:56;100893.63;;;7.78;100.00
3082;BME280;1551;51.046;7.010;2023-12-20T02:31:45;100902.06;;;7.73;100.00
3082;BME280;1551;51.046;7.010;2023-12-20T02:34:33;100896.09;;;7.66;100.00
3082;BME280;1551;51.046;7.010;2023-12-20T02:37:23;100905.44;;;7.64;100.00
3082;BME280;1551;51.046;7.010;2023-12-20T02:40:12;100912.22;;;7.65;100.00
3082;BME280;1551;51.046;7.010;2023-12-20T02:43:01;100919.03;;;7.72;100.00
3082;BME280;1551;51.046;7.010;2023-12-20T02:45:49;100910.59;;;7.78;100.00
3082;BME280;1551;51.046;7.010;2023-12-20T02:48:38;100917.41;;;7.82;100.00
3082;BME280;1551;51.046;7.010;2023-12-20T02:51:27;100922.53;;;7.85;100.00
3082;BME280;1551;51.046;7.010;2023-12-20T02:54:16;100911.50;;;7.92;100.00
3082;BME280;1551;51.046;7.010;2023-12-20T02:57:05;100920.84;;;7.91;99.85
3082;BME280;1551;51.046;7.010;2023-12-20T02:59:55;100916.59;;;7.92;99.48
3082;BME280;1551;51.046;7.010;2023-12-20T03:02:44;100920.00;;;7.92;99.40
3082;BME280;1551;51.046;7.010;2023-12-20T03:05:32;100926.81;;;7.96;98.89
3082;BME280;1551;51.046;7.010;2023-12-20T03:08:22;100920.88;;;8.00;99.06
3082;BME280;1551;51.046;7.010;2023-12-20T03:11:11;100916.63;;;8.02;98.27
3082;BME280;1551;51.046;7.010;2023-12-20T03:14:00;100905.59;;;8.00;98.74
3082;BME280;1551;51.046;7.010;2023-12-20T03:16:51;100914.09;;;8.02;98.07
3082;BME280;1551;51.046;7.010;2023-12-20T03:19:40;100920.03;;;8.00;98.01
3082;BME280;1551;51.046;7.010;2023-12-20T03:22:29;100910.69;;;8.03;97.66
3082;BME280;1551;51.046;7.010;2023-12-20T03:25:19;100915.75;;;7.97;97.43
3082;BME280;1551;51.046;7.010;2023-12-20T03:28:07;100914.91;;;8.00;97.77
3082;BME280;1551;51.046;7.010;2023-12-20T03:30:56;100911.56;;;8.04;97.86
3082;BME280;1551;51.046;7.010;2023-12-20T03:33:45;100913.22;;;8.00;97.38
3082;BME280;1551;51.046;7.010;2023-12-20T03:36:34;100907.28;;;8.00;96.64
3082;BME280;1551;51.046;7.010;2023-12-20T03:39:23;100911.53;;;8.02;97.01
3082;BME280;1551;51.046;7.010;2023-12-20T03:42:12;100911.56;;;8.04;97.63
3082;BME280;1551;51.046;7.010;2023-12-20T03:45:02;100908.16;;;8.09;97.19
3082;BME280;1551;51.046;7.010;2023-12-20T03:47:50;100904.72;;;8.00;96.55
3082;BME280;1551;51.046;7.010;2023-12-20T03:50:43;100901.34;;;7.99;96.43
3082;BME280;1551;51.046;7.010;2023-12-20T03:53:32;100896.25;;;8.01;96.86
3082;BME280;1551;51.046;7.010;2023-12-20T03:56:21;100908.09;;;7.93;95.84
3082;BME280;1551;51.046;7.010;2023-12-20T03:59:10;100908.09;;;7.87;96.62
3082;BME280;1551;51.046;7.010;2023-12-20T04:01:59;100913.16;;;7.82;96.58
3082;BME280;1551;51.046;7.010;2023-12-20T04:04:48;100906.38;;;7.84;96.28
3082;BME280;1551;51.046;7.010;2023-12-20T04:07:37;100910.59;;;7.84;95.81
3082;BME280;1551;51.046;7.010;2023-12-20T04:10:26;100904.69;;;7.85;95.66
3082;BME280;1551;51.046;7.010;2023-12-20T04:13:15;100903.84;;;7.87;95.63
3082;BME280;1551;51.046;7.010;2023-12-20T04:16:05;100917.41;;;7.83;95.58
3082;BME280;1551;51.046;7.010;2023-12-20T04:18:54;100903.81;;;7.86;96.06
3082;BME280;1551;51.046;7.010;2023-12-20T04:21:44;100899.59;;;7.85;95.79
3082;BME280;1551;51.046;7.010;2023-12-20T04:24:33;100904.69;;;7.91;95.23
3082;BME280;1551;51.046;7.010;2023-12-20T04:27:22;100902.16;;;7.91;95.46
3082;BME280;1551;51.046;7.010;2023-12-20T04:30:11;100897.06;;;7.95;95.07
3082;BME280;1551;51.046;7.010;2023-12-20T04:33:00;100905.53;;;7.93;95.55
3082;BME280;1551;51.046;7.010;2023-12-20T04:35:49;100907.25;;;7.94;95.38
3082;BME280;1551;51.046;7.010;2023-12-20T04:38:38;100921.72;;;7.98;95.14
3082;BME280;1551;51.046;7.010;2023-12-20T04:41:27;100914.94;;;7.97;94.84
3082;BME280;1551;51.046;7.010;2023-12-20T04:44:16;100915.75;;;7.91;95.13
3082;BME280;1551;51.046;7.010;2023-12-20T04:47:05;100927.63;;;7.89;94.86
3082;BME280;1551;51.046;7.010;2023-12-20T04:49:54;100925.94;;;7.90;94.90
3082;BME280;1551;51.046;7.010;2023-12-20T04:52:43;100931.03;;;7.90;95.08
3082;BME280;1551;51.046;7.010;2023-12-20T04:55:32;100931.84;;;7.86;95.38
3082;BME280;1551;51.046;7.010;2023-12-20T04:58:21;100930.19;;;7.92;95.51
3082;BME280;1551;51.046;7.010;2023-12-20T05:01:10;100917.47;;;7.94;95.24
3082;BME280;1551;51.046;7.010;2023-12-20T05:03:59;100918.28;;;7.91;95.25
3082;BME280;1551;51.046;7.010;2023-12-20T05:06:48;100929.31;;;7.89;94.78
3082;BME280;1551;51.046;7.010;2023-12-20T05:09:38;100930.19;;;7.95;95.26
3082;BME280;1551;51.046;7.010;2023-12-20T05:12:27;100927.66;;;7.92;94.70
3082;BME280;1551;51.046;7.010;2023-12-20T05:15:16;100922.50;;;7.86;95.30
3082;BME280;1551;51.046;7.010;2023-12-20T05:18:05;100922.50;;;7.86;95.31
3082;BME280;1551;51.046;7.010;2023-12-20T05:20:54;100925.88;;;7.81;94.86
3082;BME280;1551;51.046;7.010;2023-12-20T05:23:43;100936.09;;;7.82;95.45
3082;BME280;1551;51.046;7.010;2023-12-20T05:26:32;100935.22;;;7.79;94.68
3082;BME280;1551;51.046;7.010;2023-12-20T05:29:21;100939.47;;;7.80;94.78
3082;BME280;1551;51.046;7.010;2023-12-20T05:32:10;100927.56;;;7.76;94.82
3082;BME280;1551;51.046;7.010;2023-12-20T05:34:59;100923.25;;;7.62;94.55
3082;BME280;1551;51.046;7.010;2023-12-20T05:37:48;100923.25;;;7.59;94.89
3082;BME280;1551;51.046;7.010;2023-12-20T05:40:37;100923.19;;;7.55;94.53
3082;BME280;1551;51.046;7.010;2023-12-20T05:43:25;100916.38;;;7.49;94.60
3082;BME280;1551;51.046;7.010;2023-12-20T05:46:14;100916.31;;;7.36;94.76
3082;BME280;1551;51.046;7.010;2023-12-20T05:49:04;100922.16;;;7.27;95.27
3082;BME280;1551;51.046;7.010;2023-12-20T05:51:53;100920.47;;;7.29;95.28
3082;BME280;1551;51.046;7.010;2023-12-20T05:54:42;100919.72;;;7.38;95.56
3082;BME280;1551;51.046;7.010;2023-12-20T05:57:32;100913.75;;;7.39;95.74
3082;BME280;1551;51.046;7.010;2023-12-20T06:00:21;100918.88;;;7.43;95.61
3082;BME280;1551;51.046;7.010;2023-12-20T06:03:10;100911.25;;;7.46;95.78
3082;BME280;1551;51.046;7.010;2023-12-20T06:05:58;100915.50;;;7.44;95.18
3082;BME280;1551;51.046;7.010;2023-12-20T06:08:49;100914.63;;;7.44;95.18
3082;BME280;1551;51.046;7.010;2023-12-20T06:11:38;100919.75;;;7.48;95.57
3082;BME280;1551;51.046;7.010;2023-12-20T06:14:27;100921.47;;;7.49;95.05
3082;BME280;1551;51.046;7.010;2023-12-20T06:17:15;100917.25;;;7.50;95.56
3082;BME280;1551;51.046;7.010;2023-12-20T06:20:07;100923.13;;;7.43;94.95
3082;BME280;1551;51.046;7.010;2023-12-20T06:22:56;100927.41;;;7.47;95.30
3082;BME280;1551;51.046;7.010;2023-12-20T06:25:45;100935.06;;;7.51;95.40
3082;BME280;1551;51.046;7.010;2023-12-20T06:28:34;100924.84;;;7.47;95.50
3082;BME280;1551;51.046;7.010;2023-12-20T06:31:23;100939.34;;;7.57;95.17
3082;BME280;1551;51.046;7.010;2023-12-20T06:34:12;100932.56;;;7.54;94.96
3082;BME280;1551;51.046;7.010;2023-12-20T06:37:01;100935.09;;;7.57;95.51
3082;BME280;1551;51.046;7.010;2023-12-20T06:39:50;100938.53;;;7.66;95.35
3082;BME280;1551;51.046;7.010;2023-12-20T06:42:39;100934.31;;;7.66;94.90
3082;BME280;1551;51.046;7.010;2023-12-20T06:45:28;100936.84;;;7.66;95.41
3082;BME280;1551;51.046;7.010;2023-12-20T06:48:16;100930.91;;;7.64;94.63
3082;BME280;1551;51.046;7.010;2023-12-20T06:51:06;100941.91;;;7.64;95.09
3082;BME280;1551;51.046;7.010;2023-12-20T06:53:55;100940.25;;;7.68;95.24
3082;BME280;1551;51.046;7.010;2023-12-20T06:56:44;100945.38;;;7.73;95.51
3082;BME280;1551;51.046;7.010;2023-12-20T06:59:33;100941.13;;;7.76;95.31
3082;BME280;1551;51.046;7.010;2023-12-20T07:02:22;100936.91;;;7.75;95.08
3082;BME280;1551;51.046;7.010;2023-12-20T07:05:11;100935.22;;;7.77;95.02
3082;BME280;1551;51.046;7.010;2023-12-20T07:08:00;100941.19;;;7.84;95.06
3082;BME280;1551;51.046;7.010;2023-12-20T07:10:49;100942.03;;;7.83;94.21
3082;BME280;1551;51.046;7.010;2023-12-20T07:13:38;100941.22;;;7.87;94.44
3082;BME280;1551;51.046;7.010;2023-12-20T07:16:27;100944.56;;;7.81;94.35
3082;BME280;1551;51.046;7.010;2023-12-20T07:19:16;100938.63;;;7.84;94.08
3082;BME280;1551;51.046;7.010;2023-12-20T07:22:08;100936.13;;;7.85;94.33
3082;BME280;1551;51.046;7.010;2023-12-20T07:24:58;100948.88;;;7.90;93.54
3082;BME280;1551;51.046;7.010;2023-12-20T07:27:47;100938.69;;;7.91;93.68
3082;BME280;1551;51.046;7.010;2023-12-20T07:30:37;100945.47;;;7.89;93.12
3082;BME280;1551;51.046;7.010;2023-12-20T07:33:26;100946.31;;;7.85;92.71
3082;BME280;1551;51.046;7.010;2023-12-20T07:36:15;100937.78;;;7.83;93.25
3082;BME280;1551;51.046;7.010;2023-12-20T07:39:04;100933.56;;;7.85;92.46
3082;BME280;1551;51.046;7.010;2023-12-20T07:41:53;100938.69;;;7.90;92.74
3082;BME280;1551;51.046;7.010;2023-12-20T07:44:41;100941.22;;;7.85;92.31
3082;BME280;1551;51.046;7.010;2023-12-20T07:47:31;100949.69;;;7.84;92.43
3082;BME280;1551;51.046;7.010;2023-12-20T07:50:19;100951.38;;;7.84;92.60
3082;BME280;1551;51.046;7.010;2023-12-20T07:53:08;100943.75;;;7.87;92.38
3082;BME280;1551;51.046;7.010;2023-12-20T07:55:57;100950.56;;;7.91;92.74
3082;BME280;1551;51.046;7.010;2023-12-20T07:58:46;100952.28;;;7.92;92.48
3082;BME280;1551;51.046;7.010;2023-12-20T08:01:37;100945.44;;;7.88;91.38
3082;BME280;1551;51.046;7.010;2023-12-20T08:04:26;100945.50;;;7.94;91.83
3082;BME280;1551;51.046;7.010;2023-12-20T08:07:15;100938.66;;;7.88;92.03
3082;BME280;1551;51.046;7.010;2023-12-20T08:10:04;100939.53;;;7.92;91.51
3082;BME280;1551;51.046;7.010;2023-12-20T08:12:53;100947.19;;;7.93;91.16
3082;BME280;1551;51.046;7.010;2023-12-20T08:15:42;100955.72;;;7.97;91.97
3082;BME280;1551;51.046;7.010;2023-12-20T08:18:31;100964.19;;;7.96;91.52
3082;BME280;1551;51.046;7.010;2023-12-20T08:21:20;100955.69;;;8.00;91.24
3082;BME280;1551;51.046;7.010;2023-12-20T08:24:11;100952.34;;;8.05;91.19
3082;BME280;1551;51.046;7.010;2023-12-20T08:27:00;100942.97;;;7.98;91.29
3082;BME280;1551;51.046;7.010;2023-12-20T08:29:49;100954.81;;;7.95;91.35
3082;BME280;1551;51.046;7.010;2023-12-20T08:32:39;100959.13;;;7.99;90.99
3082;BME280;1551;51.046;7.010;2023-12-20T08:35:28;100957.41;;;7.99;90.72
3082;BME280;1551;51.046;7.010;2023-12-20T08:38:17;100959.09;;;8.00;90.66
3082;BME280;1551;51.046;7.010;2023-12-20T08:41:06;100959.09;;;7.97;90.29
3082;BME280;1551;51.046;7.010;2023-12-20T08:43:55;100975.22;;;7.93;90.19
3082;BME280;1551;51.046;7.010;2023-12-20T08:46:44;100956.50;;;7.91;90.89
3082;BME280;1551;51.046;7.010;2023-12-20T08:49:33;100961.63;;;7.93;90.54
3082;BME280;1551;51.046;7.010;2023-12-20T08:52:22;100969.28;;;7.96;90.75
3082;BME280;1551;51.046;7.010;2023-12-20T08:55:12;100971.81;;;7.96;90.39
3082;BME280;1551;51.046;7.010;2023-12-20T08:58:01;100964.19;;;8.02;90.57
3082;BME280;1551;51.046;7.010;2023-12-20T09:00:50;100972.69;;;7.98;89.98
3082;BME280;1551;51.046;7.010;2023-12-20T09:03:40;100959.09;;;7.94;89.87
3082;BME280;1551;51.046;7.010;2023-12-20T09:06:29;100954.81;;;7.93;89.79
3082;BME280;1551;51.046;7.010;2023-12-20T09:09:18;100967.59;;;7.96;90.04
3082;BME280;1551;51.046;7.010;2023-12-20T09:12:07;100969.31;;;7.99;89.89
3082;BME280;1551;51.046;7.010;2023-12-20T09:14:56;100968.50;;;8.06;89.48
3082;BME280;1551;51.046;7.010;2023-12-20T09:17:45;100956.56;;;8.05;89.92
3082;BME280;1551;51.046;7.010;2023-12-20T09:20:34;100965.91;;;8.04;89.64
3082;BME280;1551;51.046;7.010;2023-12-20T09:23:23;100956.59;;;8.03;89.38
3082;BME280;1551;51.046;7.010;2023-12-20T09:26:12;100948.09;;;8.12;89.29
3082;BME280;1551;51.046;7.010;2023-12-20T09:29:01;100946.41;;;8.09;89.61
3082;BME280;1551;51.046;7.010;2023-12-20T09:31:50;100945.59;;;8.18;89.82
3082;BME280;1551;51.046;7.010;2023-12-20T09:34:39;100945.59;;;8.18;89.37
3082;BME280;1551;51.046;7.010;2023-12-20T09:37:30;100938.78;;;8.18;89.35
3082;BME280;1551;51.046;7.010;2023-12-20T09:40:19;100939.63;;;8.19;89.08
3082;BME280;1551;51.046;7.010;2023-12-20T09:43:14;100944.78;;;8.25;88.67
3082;BME280;1551;51.046;7.010;2023-12-20T09:46:06;100932.81;;;8.10;88.85
3082;BME280;1551;51.046;7.010;2023-12-20T09:48:58;100949.00;;;8.15;89.00
3082;BME280;1551;51.046;7.010;2023-12-20T09:51:50;100945.59;;;8.13;88.39
3082;BME280;1551;51.046;7.010;2023-12-20T09:54:40;100952.38;;;8.19;88.91
3082;BME280;1551;51.046;7.010;2023-12-20T09:57:30;100943.88;;;8.15;88.81
3082;BME280;1551;51.046;7.010;2023-12-20T10:00:19;100934.53;;;8.14;88.46
3082;BME280;1551;51.046;7.010;2023-12-20T10:03:08;100942.16;;;8.11;88.67
3082;BME280;1551;51.046;7.010;2023-12-20T10:05:58;100949.81;;;8.11;88.46
3082;BME280;1551;51.046;7.010;2023-12-20T10:08:47;100940.47;;;8.10;88.58
3082;BME280;1551;51.046;7.010;2023-12-20T10:11:38;100947.28;;;8.14;88.49
3082;BME280;1551;51.046;7.010;2023-12-20T10:14:27;100935.38;;;8.16;88.91
3082;BME280;1551;51.046;7.010;2023-12-20T10:17:16;100926.06;;;8.20;88.46
3082;BME280;1551;51.046;7.010;2023-12-20T10:20:05;100923.50;;;8.20;88.40
3082;BME280;1551;51.046;7.010;2023-12-20T10:23:00;100920.94;;;8.21;88.58
3082;BME280;1551;51.046;7.010;2023-12-20T10:25:56;100912.47;;;8.25;88.59
3082;BME280;1551;51.046;7.010;2023-12-20T10:28:46;100921.88;;;8.31;88.78
3082;BME280;1551;51.046;7.010;2023-12-20T10:31:35;100921.88;;;8.32;88.41
3082;BME280;1551;51.046;7.010;2023-12-20T10:34:25;100921.03;;;8.34;88.19
3082;BME280;1551;51.046;7.010;2023-12-20T10:37:14;100905.72;;;8.35;87.79
3082;BME280;1551;51.046;7.010;2023-12-20T10:40:04;100905.72;;;8.32;87.84
3082;BME280;1551;51.046;7.010;2023-12-20T10:42:55;100908.28;;;8.37;87.85
3082;BME280;1551;51.046;7.010;2023-12-20T10:45:44;100899.75;;;8.30;87.54
3082;BME280;1551;51.046;7.010;2023-12-20T10:48:34;100892.97;;;8.38;87.53
3082;BME280;1551;51.046;7.010;2023-12-20T10:51:24;100889.59;;;8.42;87.81
3082;BME280;1551;51.046;7.010;2023-12-20T10:54:15;100891.31;;;8.46;87.43
3082;BME280;1551;51.046;7.010;2023-12-20T10:57:05;100895.53;;;8.37;87.66
3082;BME280;1551;51.046;7.010;2023-12-20T10:59:55;100885.34;;;8.37;87.05
3082;BME280;1551;51.046;7.010;2023-12-20T11:02:49;100896.38;;;8.37;87.26
3082;BME280;1551;51.046;7.010;2023-12-20T11:08:49;100890.44;;;8.40;87.65
3082;BME280;1551;51.046;7.010;2023-12-20T11:12:09;100880.22;;;8.38;87.14
3082;BME280;1551;51.046;7.010;2023-12-20T11:15:00;100887.88;;;8.29;87.02
3082;BME280;1551;51.046;7.010;2023-12-20T11:17:56;100897.22;;;8.27;87.38
3082;BME280;1551;51.046;7.010;2023-12-20T11:20:46;100891.28;;;8.29;87.29
3082;BME280;1551;51.046;7.010;2023-12-20T11:23:35;100896.38;;;8.40;87.94
3082;BME280;1551;51.046;7.010;2023-12-20T11:26:28;100897.25;;;8.44;86.97
3082;BME280;1551;51.046;7.010;2023-12-20T11:29:34;100898.09;;;8.56;87.15
3082;BME280;1551;51.046;7.010;2023-12-20T11:38:01;100867.50;;;8.50;86.94
3082;BME280;1551;51.046;7.010;2023-12-20T11:40:53;100854.75;;;8.56;87.04
3082;BME280;1551;51.046;7.010;2023-12-20T11:43:42;100853.88;;;8.42;87.22
3082;BME280;1551;51.046;7.010;2023-12-20T11:46:31;100870.91;;;8.54;87.10
3082;BME280;1551;51.046;7.010;2023-12-20T11:49:25;100861.53;;;8.50;86.63
3082;BME280;1551;51.046;7.010;2023-12-20T11:52:13;100862.38;;;8.47;86.78
3082;BME280;1551;51.046;7.010;2023-12-20T11:55:03;100870.91;;;8.55;86.88
3082;BME280;1551;51.046;7.010;2023-12-20T11:57:52;100864.09;;;8.54;86.68
3082;BME280;1551;51.046;7.010;2023-12-20T12:00:43;100869.22;;;8.57;87.07
3082;BME280;1551;51.046;7.010;2023-12-20T12:03:32;100858.16;;;8.52;86.59
3082;BME280;1551;51.046;7.010;2023-12-20T12:06:21;100861.56;;;8.59;86.75
3082;BME280;1551;51.046;7.010;2023-12-20T12:09:10;100862.41;;;8.59;87.08
3082;BME280;1551;51.046;7.010;2023-12-20T12:11:59;100875.16;;;8.56;86.70
3082;BME280;1551;51.046;7.010;2023-12-20T12:14:49;100854.75;;;8.55;87.56
3082;BME280;1551;51.046;7.010;2023-12-20T12:17:38;100846.25;;;8.62;87.43
3082;BME280;1551;51.046;7.010;2023-12-20T12:20:27;100839.44;;;8.70;87.65
3082;BME280;1551;51.046;7.010;2023-12-20T12:23:22;100848.81;;;8.75;87.49
3082;BME280;1551;51.046;7.010;2023-12-20T12:26:12;100825.00;;;8.64;87.81
3082;BME280;1551;51.046;7.010;2023-12-20T12:29:01;100823.28;;;8.59;87.54
3082;BME280;1551;51.046;7.010;2023-12-20T12:31:50;100839.44;;;8.64;88.66
3082;BME280;1551;51.046;7.010;2023-12-20T12:34:39;100828.41;;;8.57;88.44
3082;BME280;1551;51.046;7.010;2023-12-20T12:37:28;100819.91;;;8.55;87.83
3082;BME280;1551;51.046;7.010;2023-12-20T12:40:17;100820.75;;;8.57;88.47
3082;BME280;1551;51.046;7.010;2023-12-20T12:43:06;100820.72;;;8.56;88.60
3082;BME280;1551;51.046;7.010;2023-12-20T12:45:55;100805.44;;;8.60;89.36
3082;BME280;1551;51.046;7.010;2023-12-20T12:48:44;100811.38;;;8.59;88.17
3082;BME280;1551;51.046;7.010;2023-12-20T12:51:33;100808.00;;;8.60;89.22
3082;BME280;1551;51.046;7.010;2023-12-20T12:54:22;100808.00;;;8.57;88.46
3082;BME280;1551;51.046;7.010;2023-12-20T12:57:14;100811.38;;;8.56;89.13
3082;BME280;1551;51.046;7.010;2023-12-20T13:00:04;100799.47;;;8.61;89.16
3082;BME280;1551;51.046;7.010;2023-12-20T13:02:53;100797.78;;;8.75;88.68
3082;BME280;1551;51.046;7.010;2023-12-20T13:05:42;100793.53;;;8.76;88.33
3082;BME280;1551;51.046;7.010;2023-12-20T13:08:32;100790.13;;;8.69;88.86
3082;BME280;1551;51.046;7.010;2023-12-20T13:11:21;100790.97;;;8.70;88.77
3082;BME280;1551;51.046;7.010;2023-12-20T13:14:10;100786.69;;;8.82;89.52
3082;BME280;1551;51.046;7.010;2023-12-20T13:17:04;100778.19;;;8.92;89.22
3082;BME280;1551;51.046;7.010;2023-12-20T13:19:52;100778.19;;;8.95;89.55
3082;BME280;1551;51.046;7.010;2023-12-20T13:22:41;100751.81;;;8.90;88.56
3082;BME280;1551;51.046;7.010;2023-12-20T13:25:30;100757.78;;;8.80;88.58
3082;BME280;1551;51.046;7.010;2023-12-20T13:28:19;100749.28;;;8.83;88.65
3082;BME280;1551;51.046;7.010;2023-12-20T13:31:08;100762.06;;;8.81;89.13
3082;BME280;1551;51.046;7.010;2023-12-20T13:33:57;100768.84;;;8.85;89.07
3082;BME280;1551;51.046;7.010;2023-12-20T13:36:46;100747.59;;;8.74;88.83
3082;BME280;1551;51.046;7.010;2023-12-20T13:39:36;100739.94;;;8.77;89.33
3082;BME280;1551;51.046;7.010;2023-12-20T13:42:25;100740.75;;;8.87;89.65
3082;BME280;1551;51.046;7.010;2023-12-20T13:45:16;100728.84;;;8.89;89.37
3082;BME280;1551;51.046;7.010;2023-12-20T13:48:05;100734.78;;;8.89;89.34
3082;BME280;1551;51.046;7.010;2023-12-20T13:50:54;100728.00;;;8.82;88.78
3082;BME280;1551;51.046;7.010;2023-12-20T13:53:43;100736.53;;;8.75;88.99
3082;BME280;1551;51.046;7.010;2023-12-20T13:56:32;100731.44;;;8.74;88.62
3082;BME280;1551;51.046;7.010;2023-12-20T13:59:22;100735.69;;;8.75;88.94
3082;BME280;1551;51.046;7.010;2023-12-20T14:02:11;100728.03;;;8.75;89.40
3082;BME280;1551;51.046;7.010;2023-12-20T14:04:59;100716.09;;;8.84;89.59
3082;BME280;1551;51.046;7.010;2023-12-20T14:07:49;100725.44;;;8.93;88.96
3082;BME280;1551;51.046;7.010;2023-12-20T14:10:38;100711.81;;;8.94;89.11
3082;BME280;1551;51.046;7.010;2023-12-20T14:13:27;100716.09;;;8.84;89.05
3082;BME280;1551;51.046;7.010;2023-12-20T14:16:16;100719.53;;;8.79;89.65
3082;BME280;1551;51.046;7.010;2023-12-20T14:19:05;100717.78;;;8.84;89.54
3082;BME280;1551;51.046;7.010;2023-12-20T14:21:56;100727.16;;;8.82;89.73
3082;BME280;1551;51.046;7.010;2023-12-20T14:24:45;100726.31;;;8.83;89.99
3082;BME280;1551;51.046;7.010;2023-12-20T14:27:34;100718.63;;;8.84;89.71
3082;BME280;1551;51.046;7.010;2023-12-20T14:30:23;100716.94;;;8.82;90.31
3082;BME280;1551;51.046;7.010;2023-12-20T14:33:13;100702.50;;;8.88;90.04
3082;BME280;1551;51.046;7.010;2023-12-20T14:36:03;100699.94;;;8.90;89.67
3082;BME280;1551;51.046;7.010;2023-12-20T14:38:53;100697.34;;;8.91;89.46
3082;BME280;1551;51.046;7.010;2023-12-20T14:41:42;100701.59;;;8.91;89.95
3082;BME280;1551;51.046;7.010;2023-12-20T14:44:31;100698.19;;;8.96;89.88
3082;BME280;1551;51.046;7.010;2023-12-20T14:47:20;100702.47;;;8.97;90.17
3082;BME280;1551;51.046;7.010;2023-12-20T14:50:09;100701.56;;;9.09;89.40
3082;BME280;1551;51.046;7.010;2023-12-20T14:53:00;100705.81;;;9.12;89.35
3082;BME280;1551;51.046;7.010;2023-12-20T14:55:49;100693.94;;;9.05;89.79
3082;BME280;1551;51.046;7.010;2023-12-20T14:58:39;100710.94;;;9.03;90.15
3082;BME280;1551;51.046;7.010;2023-12-20T15:01:28;100709.25;;;9.05;89.97
3082;BME280;1551;51.046;7.010;2023-12-20T15:04:17;100711.75;;;9.08;90.02
3082;BME280;1551;51.046;7.010;2023-12-20T15:07:06;100698.16;;;9.07;90.02
3082;BME280;1551;51.046;7.010;2023-12-20T15:09:55;100704.09;;;9.11;90.38
3082;BME280;1551;51.046;7.010;2023-12-20T15:12:45;100701.53;;;9.15;89.98
3082;BME280;1551;51.046;7.010;2023-12-20T15:15:34;100697.28;;;9.16;90.00
3082;BME280;1551;51.046;7.010;2023-12-20T15:18:23;100695.59;;;9.12;89.80
3082;BME280;1551;51.046;7.010;2023-12-20T15:21:12;100699.81;;;9.16;89.96
3082;BME280;1551;51.046;7.010;2023-12-20T15:24:01;100703.22;;;9.16;90.03
3082;BME280;1551;51.046;7.010;2023-12-20T15:27:04;100699.00;;;9.14;89.65
3082;BME280;1551;51.046;7.010;2023-12-20T15:29:53;100696.44;;;9.08;89.80